sensor_id;sensor_type;location;lat;lon;timestamp;pressure;altitude;pressure_sealevel;temperature;humidity
69624;BME280;56843;52.020;5.670;2022-12-11T00:00:50;100962.19;;;-0.82;93.22
69624;BME280;56843;52.020;5.670;2022-12-11T00:02:20;100972.66;;;-0.82;92.91
69624;BME280;56843;52.020;5.670;2022-12-11T00:03:51;100964.00;;;-0.82;93.20
69624;BME280;56843;52.020;5.670;2022-12-11T00:05:21;100968.19;;;-0.81;93.07
69624;BME280;56843;52.020;5.670;2022-12-11T00:06:52;100962.94;;;-0.81;93.03
69624;BME280;56843;52.020;5.670;2022-12-11T00:08:23;100962.94;;;-0.81;93.42
69624;BME280;56843;52.020;5.670;2022-12-11T00:09:53;100959.56;;;-0.82;93.11
69624;BME280;56843;52.020;5.670;2022-12-11T00:11:24;100960.31;;;-0.81;93.10
69624;BME280;56843;52.020;5.670;2022-12-11T00:12:55;100966.38;;;-0.81;93.18
69624;BME280;56843;52.020;5.670;2022-12-11T00:14:25;100961.13;;;-0.81;93.07
69624;BME280;56843;52.020;5.670;2022-12-11T00:15:59;100956.69;;;-0.80;93.17
69624;BME280;56843;52.020;5.670;2022-12-11T00:17:30;100963.75;;;-0.81;93.15
69624;BME280;56843;52.020;5.670;2022-12-11T00:19:00;100961.13;;;-0.81;93.37
69624;BME280;56843;52.020;5.670;2022-12-11T00:20:31;100962.72;;;-0.80;93.15
69624;BME280;56843;52.020;5.670;2022-12-11T00:22:01;100960.88;;;-0.79;93.17
69624;BME280;56843;52.020;5.670;2022-12-11T00:23:33;100963.50;;;-0.79;93.26
69624;BME280;56843;52.020;5.670;2022-12-11T00:25:04;100964.28;;;-0.79;93.13
69624;BME280;56843;52.020;5.670;2022-12-11T00:26:35;100966.69;;;-0.77;93.18
69624;BME280;56843;52.020;5.670;2022-12-11T00:28:05;100954.34;;;-0.77;93.09
69624;BME280;56843;52.020;5.670;2022-12-11T00:29:36;100958.31;;;-0.74;93.17
69624;BME280;56843;52.020;5.670;2022-12-11T00:31:08;100954.69;;;-0.73;93.00
69624;BME280;56843;52.020;5.670;2022-12-11T00:32:40;100954.41;;;-0.71;93.11
69624;BME280;56843;52.020;5.670;2022-12-11T00:34:12;100958.66;;;-0.70;93.06
69624;BME280;56843;52.020;5.670;2022-12-11T00:35:46;100959.97;;;-0.68;93.05
69624;BME280;56843;52.020;5.670;2022-12-11T00:37:17;100951.88;;;-0.66;93.06
69624;BME280;56843;52.020;5.670;2022-12-11T00:38:48;100953.69;;;-0.67;93.05
69624;BME280;56843;52.020;5.670;2022-12-11T00:40:19;100948.69;;;-0.68;93.00
69624;BME280;56843;52.020;5.670;2022-12-11T00:41:49;100949.47;;;-0.68;93.02
69624;BME280;56843;52.020;5.670;2022-12-11T00:43:19;100945.28;;;-0.69;93.02
69624;BME280;56843;52.020;5.670;2022-12-11T00:44:50;100946.84;;;-0.68;93.04
69624;BME280;56843;52.020;5.670;2022-12-11T00:46:21;100940.31;;;-0.65;93.20
69624;BME280;56843;52.020;5.670;2022-12-11T00:47:52;100943.75;;;-0.65;93.06
69624;BME280;56843;52.020;5.670;2022-12-11T00:49:25;100942.94;;;-0.65;93.04
69624;BME280;56843;52.020;5.670;2022-12-11T00:50:55;100948.19;;;-0.65;92.87
69624;BME280;56843;52.020;5.670;2022-12-11T00:52:26;100945.56;;;-0.65;93.06
69624;BME280;56843;52.020;5.670;2022-12-11T00:53:56;100940.09;;;-0.64;93.21
69624;BME280;56843;52.020;5.670;2022-12-11T00:55:27;100946.13;;;-0.63;93.26
69624;BME280;56843;52.020;5.670;2022-12-11T00:56:58;100946.13;;;-0.63;92.94
69624;BME280;56843;52.020;5.670;2022-12-11T00:58:28;100953.75;;;-0.62;93.12
69624;BME280;56843;52.020;5.670;2022-12-11T00:59:59;100952.97;;;-0.62;93.04
69624;BME280;56843;52.020;5.670;2022-12-11T01:01:29;100946.13;;;-0.63;92.98
69624;BME280;56843;52.020;5.670;2022-12-11T01:03:00;100944.53;;;-0.64;93.17
69624;BME280;56843;52.020;5.670;2022-12-11T01:04:34;100937.47;;;-0.64;93.11
69624;BME280;56843;52.020;5.670;2022-12-11T01:06:05;100940.31;;;-0.65;93.02
69624;BME280;56843;52.020;5.670;2022-12-11T01:07:36;100933.50;;;-0.66;93.09
69624;BME280;56843;52.020;5.670;2022-12-11T01:09:06;100945.56;;;-0.65;93.19
69624;BME280;56843;52.020;5.670;2022-12-11T01:11:08;100936.13;;;-0.66;93.26
69624;BME280;56843;52.020;5.670;2022-12-11T01:12:39;100940.31;;;-0.65;93.27
69624;BME280;56843;52.020;5.670;2022-12-11T01:14:10;100927.00;;;-0.64;93.05
69624;BME280;56843;52.020;5.670;2022-12-11T01:15:43;100940.88;;;-0.63;93.25
69624;BME280;56843;52.020;5.670;2022-12-11T01:17:14;100936.16;;;-0.61;93.22
69624;BME280;56843;52.020;5.670;2022-12-11T01:18:44;100935.16;;;-0.60;93.31
69624;BME280;56843;52.020;5.670;2022-12-11T01:20:15;100938.06;;;-0.57;93.07
69624;BME280;56843;52.020;5.670;2022-12-11T01:21:46;100946.47;;;-0.55;93.15
69624;BME280;56843;52.020;5.670;2022-12-11T01:23:16;100945.44;;;-0.54;93.07
69624;BME280;56843;52.020;5.670;2022-12-11T01:24:47;100936.78;;;-0.54;93.01
69624;BME280;56843;52.020;5.670;2022-12-11T01:26:18;100933.13;;;-0.53;93.00
69624;BME280;56843;52.020;5.670;2022-12-11T01:27:50;100937.31;;;-0.52;93.00
69624;BME280;56843;52.020;5.670;2022-12-11T01:29:21;100930.50;;;-0.53;93.00
69624;BME280;56843;52.020;5.670;2022-12-11T01:30:54;100934.69;;;-0.52;92.91
69624;BME280;56843;52.020;5.670;2022-12-11T01:32:26;100941.56;;;-0.51;93.24
69624;BME280;56843;52.020;5.670;2022-12-11T01:33:57;100931.59;;;-0.49;93.39
69624;BME280;56843;52.020;5.670;2022-12-11T01:35:28;100928.97;;;-0.49;92.91
69624;BME280;56843;52.020;5.670;2022-12-11T01:36:58;100933.97;;;-0.48;92.92
69624;BME280;56843;52.020;5.670;2022-12-11T01:38:29;100932.41;;;-0.49;93.06
69624;BME280;56843;52.020;5.670;2022-12-11T01:40:00;100933.19;;;-0.48;92.92
69624;BME280;56843;52.020;5.670;2022-12-11T01:41:31;100928.97;;;-0.49;92.97
69624;BME280;56843;52.020;5.670;2022-12-11T01:43:02;100925.56;;;-0.50;93.02
69624;BME280;56843;52.020;5.670;2022-12-11T01:46:27;100937.31;;;-0.52;92.92
69624;BME280;56843;52.020;5.670;2022-12-11T01:48:05;100931.31;;;-0.53;92.97
69624;BME280;56843;52.020;5.670;2022-12-11T01:49:39;100931.53;;;-0.54;93.04
69624;BME280;56843;52.020;5.670;2022-12-11T01:51:10;100934.97;;;-0.54;93.16
69624;BME280;56843;52.020;5.670;2022-12-11T01:52:43;100942.81;;;-0.54;93.05
69624;BME280;56843;52.020;5.670;2022-12-11T01:54:15;100931.53;;;-0.54;92.99
69624;BME280;56843;52.020;5.670;2022-12-11T01:55:49;100941.56;;;-0.51;93.05
69624;BME280;56843;52.020;5.670;2022-12-11T01:57:20;100946.78;;;-0.51;93.29
69624;BME280;56843;52.020;5.670;2022-12-11T01:58:55;100942.09;;;-0.49;93.10
69624;BME280;56843;52.020;5.670;2022-12-11T02:03:38;100941.06;;;-0.48;92.91
69624;BME280;56843;52.020;5.670;2022-12-11T02:05:08;100937.66;;;-0.49;92.91
69624;BME280;56843;52.020;5.670;2022-12-11T02:06:41;100938.44;;;-0.48;92.88
69624;BME280;56843;52.020;5.670;2022-12-11T02:08:12;100930.81;;;-0.50;93.08
69624;BME280;56843;52.020;5.670;2022-12-11T02:09:45;100937.66;;;-0.49;93.12
69624;BME280;56843;52.020;5.670;2022-12-11T02:11:19;100931.34;;;-0.48;93.17
69624;BME280;56843;52.020;5.670;2022-12-11T02:13:00;100934.78;;;-0.47;93.03
69624;BME280;56843;52.020;5.670;2022-12-11T02:16:38;100935.50;;;-0.52;93.11
69624;BME280;56843;52.020;5.670;2022-12-11T02:18:24;100934.47;;;-0.51;93.07
69624;BME280;56843;52.020;5.670;2022-12-11T02:20:20;100929.47;;;-0.52;93.19
69624;BME280;56843;52.020;5.670;2022-12-11T02:21:54;100936.31;;;-0.51;93.10
69624;BME280;56843;52.020;5.670;2022-12-11T02:26:50;100934.47;;;-0.51;93.00
69624;BME280;56843;52.020;5.670;2022-12-11T02:30:14;100930.00;;;-0.50;93.05
69624;BME280;56843;52.020;5.670;2022-12-11T02:31:57;100930.00;;;-0.50;93.14
69624;BME280;56843;52.020;5.670;2022-12-11T02:33:40;100927.16;;;-0.49;92.74
69624;BME280;56843;52.020;5.670;2022-12-11T02:35:17;100926.09;;;-0.48;93.09
69624;BME280;56843;52.020;5.670;2022-12-11T02:36:51;100922.72;;;-0.48;93.11
69624;BME280;56843;52.020;5.670;2022-12-11T02:38:28;100916.16;;;-0.46;93.15
69624;BME280;56843;52.020;5.670;2022-12-11T02:40:01;100918.78;;;-0.46;93.01
69624;BME280;56843;52.020;5.670;2022-12-11T02:41:34;100912.22;;;-0.48;92.92
69624;BME280;56843;52.020;5.670;2022-12-11T02:43:07;100909.34;;;-0.47;92.91
69624;BME280;56843;52.020;5.670;2022-12-11T02:44:39;100910.13;;;-0.46;92.90
69624;BME280;56843;52.020;5.670;2022-12-11T02:46:11;100906.44;;;-0.45;92.99
69624;BME280;56843;52.020;5.670;2022-12-11T02:47:43;100917.75;;;-0.45;92.85
69624;BME280;56843;52.020;5.670;2022-12-11T02:49:15;100914.31;;;-0.45;93.03
69624;BME280;56843;52.020;5.670;2022-12-11T02:50:49;100903.56;;;-0.44;93.17
69624;BME280;56843;52.020;5.670;2022-12-11T02:52:22;100913.03;;;-0.43;93.15
69624;BME280;56843;52.020;5.670;2022-12-11T02:53:57;100910.41;;;-0.43;93.01
69624;BME280;56843;52.020;5.670;2022-12-11T02:55:30;100907.78;;;-0.43;93.22
69624;BME280;56843;52.020;5.670;2022-12-11T02:57:08;100914.38;;;-0.40;93.12
69624;BME280;56843;52.020;5.670;2022-12-11T02:58:47;100913.59;;;-0.41;93.03
69624;BME280;56843;52.020;5.670;2022-12-11T03:00:22;100906.50;;;-0.40;93.08
69624;BME280;56843;52.020;5.670;2022-12-11T03:01:52;100908.34;;;-0.41;93.10
69624;BME280;56843;52.020;5.670;2022-12-11T03:03:23;100911.75;;;-0.40;93.05
69624;BME280;56843;52.020;5.670;2022-12-11T03:04:54;100909.41;;;-0.42;93.04
69624;BME280;56843;52.020;5.670;2022-12-11T03:06:31;100909.41;;;-0.42;92.97
69624;BME280;56843;52.020;5.670;2022-12-11T03:08:05;100907.25;;;-0.45;93.15
69624;BME280;56843;52.020;5.670;2022-12-11T03:09:35;100899.63;;;-0.46;93.11
69624;BME280;56843;52.020;5.670;2022-12-11T03:11:10;100901.22;;;-0.45;93.20
69624;BME280;56843;52.020;5.670;2022-12-11T03:12:44;100896.50;;;-0.43;93.27
69624;BME280;56843;52.020;5.670;2022-12-11T03:14:15;100894.69;;;-0.43;93.08
69624;BME280;56843;52.020;5.670;2022-12-11T03:16:02;100897.59;;;-0.39;93.22
69624;BME280;56843;52.020;5.670;2022-12-11T03:20:00;100899.66;;;-0.41;93.20
69624;BME280;56843;52.020;5.670;2022-12-11T03:21:53;100900.00;;;-0.38;93.25
69624;BME280;56843;52.020;5.670;2022-12-11T03:23:35;100900.78;;;-0.37;93.25
69624;BME280;56843;52.020;5.670;2022-12-11T03:26:53;100902.91;;;-0.34;93.10
69624;BME280;56843;52.020;5.670;2022-12-11T03:30:11;100894.47;;;-0.36;93.12
69624;BME280;56843;52.020;5.670;2022-12-11T03:31:45;100902.59;;;-0.38;93.26
69624;BME280;56843;52.020;5.670;2022-12-11T03:33:24;100900.53;;;-0.36;93.30
69624;BME280;56843;52.020;5.670;2022-12-11T03:35:00;100900.53;;;-0.36;93.22
69624;BME280;56843;52.020;5.670;2022-12-11T03:36:35;100908.16;;;-0.34;93.22
69624;BME280;56843;52.020;5.670;2022-12-11T03:38:30;100907.13;;;-0.33;93.14
69624;BME280;56843;52.020;5.670;2022-12-11T03:40:09;100904.50;;;-0.33;93.33
69624;BME280;56843;52.020;5.670;2022-12-11T03:41:41;100906.84;;;-0.32;93.31
69624;BME280;56843;52.020;5.670;2022-12-11T03:43:14;100904.78;;;-0.30;93.35
69624;BME280;56843;52.020;5.670;2022-12-11T03:44:47;100899.28;;;-0.28;93.30
69624;BME280;56843;52.020;5.670;2022-12-11T03:46:22;100901.41;;;-0.25;93.39
69624;BME280;56843;52.020;5.670;2022-12-11T03:47:55;100898.78;;;-0.25;93.08
69624;BME280;56843;52.020;5.670;2022-12-11T03:49:31;100902.22;;;-0.25;93.06
69624;BME280;56843;52.020;5.670;2022-12-11T03:51:04;100904.56;;;-0.23;93.20
69624;BME280;56843;52.020;5.670;2022-12-11T03:52:36;100902.22;;;-0.25;93.13
69624;BME280;56843;52.020;5.670;2022-12-11T03:54:09;100899.03;;;-0.27;93.26
69624;BME280;56843;52.020;5.670;2022-12-11T03:55:40;100892.75;;;-0.26;93.22
69624;BME280;56843;52.020;5.670;2022-12-11T03:57:20;100895.38;;;-0.26;93.19
69624;BME280;56843;52.020;5.670;2022-12-11T03:58:51;100887.50;;;-0.26;93.38
69624;BME280;56843;52.020;5.670;2022-12-11T04:00:22;100882.78;;;-0.24;93.37
69624;BME280;56843;52.020;5.670;2022-12-11T04:01:52;100882.78;;;-0.24;93.37
69624;BME280;56843;52.020;5.670;2022-12-11T04:03:23;100879.94;;;-0.22;93.19
69624;BME280;56843;52.020;5.670;2022-12-11T04:04:53;100879.94;;;-0.22;93.33
69624;BME280;56843;52.020;5.670;2022-12-11T04:06:24;100884.66;;;-0.19;93.25
69624;BME280;56843;52.020;5.670;2022-12-11T04:07:55;100880.47;;;-0.20;93.19
69624;BME280;56843;52.020;5.670;2022-12-11T04:09:25;100881.28;;;-0.20;93.31
69624;BME280;56843;52.020;5.670;2022-12-11T04:10:56;100888.34;;;-0.20;93.17
69624;BME280;56843;52.020;5.670;2022-12-11T04:12:45;100892.78;;;-0.21;93.53
69624;BME280;56843;52.020;5.670;2022-12-11T04:14:15;100885.94;;;-0.22;93.32
69624;BME280;56843;52.020;5.670;2022-12-11T04:16:15;100885.19;;;-0.22;93.22
69624;BME280;56843;52.020;5.670;2022-12-11T04:17:45;100884.13;;;-0.21;93.30
69624;BME280;56843;52.020;5.670;2022-12-11T04:19:35;100880.69;;;-0.22;93.50
69624;BME280;56843;52.020;5.670;2022-12-11T04:21:24;100882.78;;;-0.24;93.33
69624;BME280;56843;52.020;5.670;2022-12-11T04:23:15;100879.13;;;-0.23;93.29
69624;BME280;56843;52.020;5.670;2022-12-11T04:25:06;100889.63;;;-0.23;93.39
69624;BME280;56843;52.020;5.670;2022-12-11T04:26:36;100887.81;;;-0.22;93.37
69624;BME280;56843;52.020;5.670;2022-12-11T04:28:07;100890.44;;;-0.22;93.44
69624;BME280;56843;52.020;5.670;2022-12-11T04:29:37;100889.63;;;-0.23;93.49
69624;BME280;56843;52.020;5.670;2022-12-11T04:31:13;100877.03;;;-0.21;93.38
69624;BME280;56843;52.020;5.670;2022-12-11T04:32:44;100882.28;;;-0.21;93.33
69624;BME280;56843;52.020;5.670;2022-12-11T04:34:15;100876.03;;;-0.20;93.46
69624;BME280;56843;52.020;5.670;2022-12-11T04:35:45;100874.44;;;-0.21;93.31
69624;BME280;56843;52.020;5.670;2022-12-11T04:37:16;100874.97;;;-0.19;93.43
69624;BME280;56843;52.020;5.670;2022-12-11T04:38:47;100875.75;;;-0.18;93.25
69624;BME280;56843;52.020;5.670;2022-12-11T04:40:18;100866.06;;;-0.18;93.43
69624;BME280;56843;52.020;5.670;2022-12-11T04:41:48;100865.81;;;-0.16;93.42
69624;BME280;56843;52.020;5.670;2022-12-11T04:43:19;100863.97;;;-0.16;93.31
69624;BME280;56843;52.020;5.670;2022-12-11T04:44:49;100865.53;;;-0.15;93.49
69624;BME280;56843;52.020;5.670;2022-12-11T04:46:21;100867.41;;;-0.15;93.34
69624;BME280;56843;52.020;5.670;2022-12-11T04:47:52;100861.84;;;-0.19;93.14
69624;BME280;56843;52.020;5.670;2022-12-11T04:49:22;100859.47;;;-0.20;93.40
69624;BME280;56843;52.020;5.670;2022-12-11T04:50:53;100862.09;;;-0.20;93.40
69624;BME280;56843;52.020;5.670;2022-12-11T04:52:23;100858.69;;;-0.21;93.51
69624;BME280;56843;52.020;5.670;2022-12-11T04:53:54;100868.38;;;-0.21;93.40
69624;BME280;56843;52.020;5.670;2022-12-11T04:55:25;100867.34;;;-0.20;93.56
69624;BME280;56843;52.020;5.670;2022-12-11T04:56:55;100867.34;;;-0.20;93.75
69624;BME280;56843;52.020;5.670;2022-12-11T04:58:26;100857.38;;;-0.18;93.50
69624;BME280;56843;52.020;5.670;2022-12-11T04:59:57;100864.22;;;-0.17;93.53
69624;BME280;56843;52.020;5.670;2022-12-11T05:01:27;100865.00;;;-0.17;93.53
69624;BME280;56843;52.020;5.670;2022-12-11T05:02:58;100872.66;;;-0.15;93.52
69624;BME280;56843;52.020;5.670;2022-12-11T05:04:32;100865.31;;;-0.13;93.53
69624;BME280;56843;52.020;5.670;2022-12-11T05:06:04;100865.84;;;-0.11;93.50
69624;BME280;56843;52.020;5.670;2022-12-11T05:07:37;100865.59;;;-0.10;93.68
69624;BME280;56843;52.020;5.670;2022-12-11T05:09:11;100863.78;;;-0.09;93.42
69624;BME280;56843;52.020;5.670;2022-12-11T05:10:42;100869.81;;;-0.09;93.33
69624;BME280;56843;52.020;5.670;2022-12-11T05:12:13;100864.56;;;-0.09;93.12
69624;BME280;56843;52.020;5.670;2022-12-11T05:13:44;100866.94;;;-0.07;93.42
69624;BME280;56843;52.020;5.670;2022-12-11T05:15:14;100868.28;;;-0.05;93.30
69624;BME280;56843;52.020;5.670;2022-12-11T05:16:45;100868.00;;;-0.03;93.31
69624;BME280;56843;52.020;5.670;2022-12-11T05:18:15;100870.38;;;-0.02;93.22
69624;BME280;56843;52.020;5.670;2022-12-11T05:19:47;100868.28;;;0.00;93.14
69624;BME280;56843;52.020;5.670;2022-12-11T05:21:18;100870.69;;;0.02;93.05
69624;BME280;56843;52.020;5.670;2022-12-11T05:22:48;100863.59;;;0.03;93.05
69624;BME280;56843;52.020;5.670;2022-12-11T05:24:19;100863.59;;;0.03;93.09
69624;BME280;56843;52.020;5.670;2022-12-11T05:25:57;100861.75;;;0.03;93.51
69624;BME280;56843;52.020;5.670;2022-12-11T05:27:28;100862.81;;;0.02;93.08
69624;BME280;56843;52.020;5.670;2022-12-11T05:28:58;100868.84;;;0.03;92.97
69624;BME280;56843;52.020;5.670;2022-12-11T05:30:29;100863.03;;;0.00;93.01
69624;BME280;56843;52.020;5.670;2022-12-11T05:31:59;100863.84;;;0.01;93.00
69624;BME280;56843;52.020;5.670;2022-12-11T05:33:30;100871.72;;;0.01;92.99
69624;BME280;56843;52.020;5.670;2022-12-11T05:35:01;100859.88;;;-0.02;92.92
69624;BME280;56843;52.020;5.670;2022-12-11T05:36:33;100860.13;;;-0.03;93.19
69624;BME280;56843;52.020;5.670;2022-12-11T05:38:03;100856.97;;;-0.05;93.13
69624;BME280;56843;52.020;5.670;2022-12-11T05:39:34;100862.22;;;-0.05;93.20
69624;BME280;56843;52.020;5.670;2022-12-11T05:41:06;100862.22;;;-0.05;93.33
69624;BME280;56843;52.020;5.670;2022-12-11T05:42:36;100860.41;;;-0.05;93.57
69624;BME280;56843;52.020;5.670;2022-12-11T05:44:11;100861.19;;;-0.04;93.22
69624;BME280;56843;52.020;5.670;2022-12-11T05:45:42;100870.34;;;-0.07;93.23
69624;BME280;56843;52.020;5.670;2022-12-11T05:47:12;100862.47;;;-0.07;92.89
69624;BME280;56843;52.020;5.670;2022-12-11T05:48:45;100860.63;;;-0.06;93.31
69624;BME280;56843;52.020;5.670;2022-12-11T05:50:16;100869.56;;;-0.07;93.19
69624;BME280;56843;52.020;5.670;2022-12-11T05:51:46;100862.16;;;-0.10;93.16
69624;BME280;56843;52.020;5.670;2022-12-11T05:53:17;100861.38;;;-0.11;93.24
69624;BME280;56843;52.020;5.670;2022-12-11T05:54:48;100871.34;;;-0.13;93.29
69624;BME280;56843;52.020;5.670;2022-12-11T05:56:24;100864.25;;;-0.12;93.32
69624;BME280;56843;52.020;5.670;2022-12-11T05:57:56;100860.06;;;-0.13;93.37
69624;BME280;56843;52.020;5.670;2022-12-11T05:59:27;100860.84;;;-0.13;93.26
69624;BME280;56843;52.020;5.670;2022-12-11T06:00:58;100866.88;;;-0.12;93.36
69624;BME280;56843;52.020;5.670;2022-12-11T06:02:29;100861.63;;;-0.12;93.29
69624;BME280;56843;52.020;5.670;2022-12-11T06:04:00;100856.66;;;-0.14;93.63
69624;BME280;56843;52.020;5.670;2022-12-11T06:05:31;100854.28;;;-0.15;93.46
69624;BME280;56843;52.020;5.670;2022-12-11T06:07:01;100850.06;;;-0.16;93.42
69624;BME280;56843;52.020;5.670;2022-12-11T06:08:32;100849.25;;;-0.17;93.61
69624;BME280;56843;52.020;5.670;2022-12-11T06:10:03;100851.09;;;-0.17;93.47
69624;BME280;56843;52.020;5.670;2022-12-11T06:11:34;100851.09;;;-0.17;93.38
69624;BME280;56843;52.020;5.670;2022-12-11T06:13:05;100848.72;;;-0.19;93.56
69624;BME280;56843;52.020;5.670;2022-12-11T06:14:36;100851.59;;;-0.20;93.46
69624;BME280;56843;52.020;5.670;2022-12-11T06:16:07;100853.97;;;-0.19;93.52
69624;BME280;56843;52.020;5.670;2022-12-11T06:17:38;100850.31;;;-0.18;93.57
69624;BME280;56843;52.020;5.670;2022-12-11T06:19:15;100849.78;;;-0.20;93.64
69624;BME280;56843;52.020;5.670;2022-12-11T06:20:47;100854.22;;;-0.20;93.46
69624;BME280;56843;52.020;5.670;2022-12-11T06:22:18;100856.84;;;-0.20;93.59
69624;BME280;56843;52.020;5.670;2022-12-11T06:23:51;100853.97;;;-0.19;93.62
69624;BME280;56843;52.020;5.670;2022-12-11T06:25:21;100855.56;;;-0.18;93.57
69624;BME280;56843;52.020;5.670;2022-12-11T06:26:52;100855.56;;;-0.18;93.58
69624;BME280;56843;52.020;5.670;2022-12-11T06:28:23;100852.94;;;-0.18;93.57
69624;BME280;56843;52.020;5.670;2022-12-11T06:29:53;100848.47;;;-0.17;93.53
69624;BME280;56843;52.020;5.670;2022-12-11T06:31:24;100852.94;;;-0.18;93.48
69624;BME280;56843;52.020;5.670;2022-12-11T06:32:54;100857.94;;;-0.16;93.59
69624;BME280;56843;52.020;5.670;2022-12-11T06:34:24;100860.56;;;-0.16;93.51
69624;BME280;56843;52.020;5.670;2022-12-11T06:35:55;100865.00;;;-0.17;93.52
69624;BME280;56843;52.020;5.670;2022-12-11T06:37:26;100859.22;;;-0.19;93.48
69624;BME280;56843;52.020;5.670;2022-12-11T06:38:56;100862.91;;;-0.20;93.46
69624;BME280;56843;52.020;5.670;2022-12-11T06:40:27;100869.97;;;-0.20;93.25
69624;BME280;56843;52.020;5.670;2022-12-11T06:41:57;100858.41;;;-0.19;93.54
69624;BME280;56843;52.020;5.670;2022-12-11T06:43:28;100862.09;;;-0.20;93.46
69624;BME280;56843;52.020;5.670;2022-12-11T06:44:58;100859.72;;;-0.22;93.31
69624;BME280;56843;52.020;5.670;2022-12-11T06:46:29;100866.81;;;-0.22;93.47
69624;BME280;56843;52.020;5.670;2022-12-11T06:48:00;100862.59;;;-0.23;93.45
69624;BME280;56843;52.020;5.670;2022-12-11T06:49:30;100866.81;;;-0.22;93.45
69624;BME280;56843;52.020;5.670;2022-12-11T06:51:05;100861.31;;;-0.21;93.56
69624;BME280;56843;52.020;5.670;2022-12-11T06:52:36;100868.63;;;-0.23;93.44
69624;BME280;56843;52.020;5.670;2022-12-11T06:54:06;100864.19;;;-0.22;93.52
69624;BME280;56843;52.020;5.670;2022-12-11T06:55:37;100872.81;;;-0.22;93.47
69624;BME280;56843;52.020;5.670;2022-12-11T06:57:08;100871.00;;;-0.21;93.22
69624;BME280;56843;52.020;5.670;2022-12-11T06:58:40;100863.94;;;-0.21;93.18
69624;BME280;56843;52.020;5.670;2022-12-11T07:00:11;100861.31;;;-0.21;93.46
69624;BME280;56843;52.020;5.670;2022-12-11T07:01:41;100866.28;;;-0.19;93.50
69624;BME280;56843;52.020;5.670;2022-12-11T07:03:12;100861.31;;;-0.21;93.34
69624;BME280;56843;52.020;5.670;2022-12-11T07:04:43;100873.63;;;-0.21;93.52
69624;BME280;56843;52.020;5.670;2022-12-11T07:06:14;100874.44;;;-0.21;93.21
69624;BME280;56843;52.020;5.670;2022-12-11T07:07:44;100878.88;;;-0.21;93.36
69624;BME280;56843;52.020;5.670;2022-12-11T07:09:15;100885.72;;;-0.20;93.19
69624;BME280;56843;52.020;5.670;2022-12-11T07:10:45;100887.81;;;-0.22;93.39
69624;BME280;56843;52.020;5.670;2022-12-11T07:12:16;100880.97;;;-0.23;93.48
69624;BME280;56843;52.020;5.670;2022-12-11T07:13:47;100881.22;;;-0.25;93.44
69624;BME280;56843;52.020;5.670;2022-12-11T07:15:18;100885.66;;;-0.25;93.28
69624;BME280;56843;52.020;5.670;2022-12-11T07:16:48;100887.75;;;-0.27;93.24
69624;BME280;56843;52.020;5.670;2022-12-11T07:18:19;100882.75;;;-0.29;93.21
69624;BME280;56843;52.020;5.670;2022-12-11T07:19:49;100885.38;;;-0.29;93.53
69624;BME280;56843;52.020;5.670;2022-12-11T07:21:20;100884.59;;;-0.29;93.36
69624;BME280;56843;52.020;5.670;2022-12-11T07:22:52;100883.53;;;-0.28;93.38
69624;BME280;56843;52.020;5.670;2022-12-11T07:24:23;100881.97;;;-0.29;93.40
69624;BME280;56843;52.020;5.670;2022-12-11T07:25:54;100885.38;;;-0.29;93.39
69624;BME280;56843;52.020;5.670;2022-12-11T07:27:25;100884.59;;;-0.29;93.32
69624;BME280;56843;52.020;5.670;2022-12-11T07:28:56;100883.53;;;-0.28;93.38
69624;BME280;56843;52.020;5.670;2022-12-11T07:30:27;100881.69;;;-0.28;93.30
69624;BME280;56843;52.020;5.670;2022-12-11T07:31:58;100886.72;;;-0.26;93.31
69624;BME280;56843;52.020;5.670;2022-12-11T07:33:28;100887.50;;;-0.26;93.05
69624;BME280;56843;52.020;5.670;2022-12-11T07:34:59;100882.25;;;-0.26;93.17
69624;BME280;56843;52.020;5.670;2022-12-11T07:36:30;100889.09;;;-0.25;93.10
69624;BME280;56843;52.020;5.670;2022-12-11T07:38:01;100878.06;;;-0.27;93.04
69624;BME280;56843;52.020;5.670;2022-12-11T07:39:31;100891.16;;;-0.27;93.16
69624;BME280;56843;52.020;5.670;2022-12-11T07:41:03;100885.66;;;-0.25;93.16
69624;BME280;56843;52.020;5.670;2022-12-11T07:42:34;100890.91;;;-0.25;93.27
69624;BME280;56843;52.020;5.670;2022-12-11T07:44:05;100887.50;;;-0.26;93.05
69624;BME280;56843;52.020;5.670;2022-12-11T07:45:35;100881.69;;;-0.28;93.10
69624;BME280;56843;52.020;5.670;2022-12-11T07:47:06;100878.28;;;-0.28;93.00
69624;BME280;56843;52.020;5.670;2022-12-11T07:48:38;100886.94;;;-0.28;92.94
69624;BME280;56843;52.020;5.670;2022-12-11T07:50:09;100881.16;;;-0.30;93.19
69624;BME280;56843;52.020;5.670;2022-12-11T07:51:41;100884.03;;;-0.31;92.95
69624;BME280;56843;52.020;5.670;2022-12-11T07:53:12;100879.03;;;-0.33;93.13
69624;BME280;56843;52.020;5.670;2022-12-11T07:54:42;100888.50;;;-0.32;93.09
69624;BME280;56843;52.020;5.670;2022-12-11T07:56:14;100889.53;;;-0.33;93.11
69624;BME280;56843;52.020;5.670;2022-12-11T07:57:44;100888.75;;;-0.33;93.14
69624;BME280;56843;52.020;5.670;2022-12-11T07:59:15;100886.91;;;-0.33;93.08
69624;BME280;56843;52.020;5.670;2022-12-11T08:00:46;100892.16;;;-0.33;93.16
69624;BME280;56843;52.020;5.670;2022-12-11T08:02:17;100893.75;;;-0.32;92.89
69624;BME280;56843;52.020;5.670;2022-12-11T08:03:47;100903.44;;;-0.32;93.08
69624;BME280;56843;52.020;5.670;2022-12-11T08:05:18;100890.84;;;-0.35;93.11
69624;BME280;56843;52.020;5.670;2022-12-11T08:06:49;100900.53;;;-0.36;92.99
69624;BME280;56843;52.020;5.670;2022-12-11T08:08:20;100903.41;;;-0.37;93.09
69624;BME280;56843;52.020;5.670;2022-12-11T08:09:50;100906.03;;;-0.37;92.88
69624;BME280;56843;52.020;5.670;2022-12-11T08:11:21;100907.06;;;-0.38;92.88
69624;BME280;56843;52.020;5.670;2022-12-11T08:12:51;100905.72;;;-0.41;92.91
69624;BME280;56843;52.020;5.670;2022-12-11T08:14:22;100899.94;;;-0.43;92.87
69624;BME280;56843;52.020;5.670;2022-12-11T08:15:52;100904.38;;;-0.43;93.15
69624;BME280;56843;52.020;5.670;2022-12-11T08:17:23;100902.56;;;-0.43;92.94
69624;BME280;56843;52.020;5.670;2022-12-11T08:18:54;100902.00;;;-0.45;92.94
69624;BME280;56843;52.020;5.670;2022-12-11T08:20:24;100901.47;;;-0.47;92.85
69624;BME280;56843;52.020;5.670;2022-12-11T08:21:58;100903.53;;;-0.49;92.76